sensor_id;sensor_type;location;lat;lon;timestamp;P1;durP1;ratioP1;P2;durP2;ratioP2
7575;SDS011;3829;50.798;4.358;2023-08-07T00:00:41;6.57;;;3.03;;
7575;SDS011;3829;50.798;4.358;2023-08-07T00:03:07;5.47;;;3.17;;
7575;SDS011;3829;50.798;4.358;2023-08-07T00:05:33;7.70;;;3.03;;
7575;SDS011;3829;50.798;4.358;2023-08-07T00:07:59;11.80;;;2.67;;
7575;SDS011;3829;50.798;4.358;2023-08-07T00:10:24;11.87;;;3.30;;
7575;SDS011;3829;50.798;4.358;2023-08-07T00:12:50;5.47;;;2.70;;
7575;SDS011;3829;50.798;4.358;2023-08-07T00:15:16;10.43;;;3.00;;
7575;SDS011;3829;50.798;4.358;2023-08-07T00:17:41;11.00;;;3.13;;
7575;SDS011;3829;50.798;4.358;2023-08-07T00:20:07;10.97;;;2.83;;
7575;SDS011;3829;50.798;4.358;2023-08-07T00:22:33;5.83;;;2.40;;
7575;SDS011;3829;50.798;4.358;2023-08-07T00:24:58;7.63;;;3.53;;
7575;SDS011;3829;50.798;4.358;2023-08-07T00:27:24;12.43;;;3.43;;
7575;SDS011;3829;50.798;4.358;2023-08-07T00:29:50;6.40;;;3.20;;
7575;SDS011;3829;50.798;4.358;2023-08-07T00:32:15;5.13;;;2.70;;
7575;SDS011;3829;50.798;4.358;2023-08-07T00:34:41;11.40;;;2.77;;
7575;SDS011;3829;50.798;4.358;2023-08-07T00:37:06;10.90;;;3.13;;
7575;SDS011;3829;50.798;4.358;2023-08-07T00:39:32;7.43;;;2.97;;
7575;SDS011;3829;50.798;4.358;2023-08-07T00:41:57;9.80;;;3.90;;
7575;SDS011;3829;50.798;4.358;2023-08-07T00:44:23;11.27;;;3.13;;
7575;SDS011;3829;50.798;4.358;2023-08-07T00:46:49;9.27;;;2.80;;
7575;SDS011;3829;50.798;4.358;2023-08-07T00:49:15;8.30;;;2.80;;
7575;SDS011;3829;50.798;4.358;2023-08-07T00:51:43;11.60;;;3.13;;
7575;SDS011;3829;50.798;4.358;2023-08-07T00:54:09;6.43;;;2.93;;
7575;SDS011;3829;50.798;4.358;2023-08-07T00:56:36;8.83;;;2.70;;
7575;SDS011;3829;50.798;4.358;2023-08-07T00:59:02;8.87;;;2.53;;
7575;SDS011;3829;50.798;4.358;2023-08-07T01:01:28;12.47;;;3.17;;
7575;SDS011;3829;50.798;4.358;2023-08-07T01:03:54;8.10;;;2.40;;
7575;SDS011;3829;50.798;4.358;2023-08-07T01:06:19;4.80;;;2.97;;
7575;SDS011;3829;50.798;4.358;2023-08-07T01:08:45;7.90;;;3.07;;
7575;SDS011;3829;50.798;4.358;2023-08-07T01:11:16;10.43;;;3.00;;
7575;SDS011;3829;50.798;4.358;2023-08-07T01:14:07;5.60;;;2.70;;
7575;SDS011;3829;50.798;4.358;2023-08-07T01:16:47;8.83;;;2.90;;
7575;SDS011;3829;50.798;4.358;2023-08-07T01:19:24;7.30;;;3.10;;
7575;SDS011;3829;50.798;4.358;2023-08-07T01:24:31;6.33;;;2.90;;
7575;SDS011;3829;50.798;4.358;2023-08-07T01:26:58;7.37;;;2.53;;
7575;SDS011;3829;50.798;4.358;2023-08-07T01:29:35;14.47;;;2.77;;
7575;SDS011;3829;50.798;4.358;2023-08-07T01:32:08;9.17;;;3.13;;
7575;SDS011;3829;50.798;4.358;2023-08-07T01:34:35;4.77;;;2.43;;
7575;SDS011;3829;50.798;4.358;2023-08-07T01:37:05;7.27;;;2.87;;
7575;SDS011;3829;50.798;4.358;2023-08-07T01:39:32;8.33;;;3.00;;
7575;SDS011;3829;50.798;4.358;2023-08-07T01:42:00;11.70;;;3.17;;
7575;SDS011;3829;50.798;4.358;2023-08-07T01:44:27;8.93;;;2.80;;
7575;SDS011;3829;50.798;4.358;2023-08-07T01:46:53;5.67;;;2.47;;
7575;SDS011;3829;50.798;4.358;2023-08-07T01:49:19;12.50;;;2.80;;
7575;SDS011;3829;50.798;4.358;2023-08-07T01:51:45;6.40;;;2.70;;
7575;SDS011;3829;50.798;4.358;2023-08-07T01:54:10;6.57;;;2.97;;
7575;SDS011;3829;50.798;4.358;2023-08-07T01:56:36;8.70;;;2.97;;
7575;SDS011;3829;50.798;4.358;2023-08-07T01:59:01;10.67;;;3.27;;
7575;SDS011;3829;50.798;4.358;2023-08-07T02:01:27;5.20;;;2.60;;
7575;SDS011;3829;50.798;4.358;2023-08-07T02:03:52;6.83;;;2.73;;
7575;SDS011;3829;50.798;4.358;2023-08-07T02:06:18;8.77;;;2.80;;
7575;SDS011;3829;50.798;4.358;2023-08-07T02:08:43;8.10;;;2.37;;
7575;SDS011;3829;50.798;4.358;2023-08-07T02:11:09;7.10;;;2.50;;
7575;SDS011;3829;50.798;4.358;2023-08-07T02:13:34;9.20;;;2.90;;
7575;SDS011;3829;50.798;4.358;2023-08-07T02:16:00;7.27;;;2.73;;
7575;SDS011;3829;50.798;4.358;2023-08-07T02:18:25;7.67;;;2.70;;
7575;SDS011;3829;50.798;4.358;2023-08-07T02:20:51;3.83;;;2.50;;
7575;SDS011;3829;50.798;4.358;2023-08-07T02:23:17;4.30;;;2.50;;
7575;SDS011;3829;50.798;4.358;2023-08-07T02:25:42;7.57;;;2.57;;
7575;SDS011;3829;50.798;4.358;2023-08-07T02:28:10;5.13;;;2.37;;
7575;SDS011;3829;50.798;4.358;2023-08-07T02:30:36;4.13;;;2.70;;
7575;SDS011;3829;50.798;4.358;2023-08-07T02:33:01;4.90;;;2.40;;
7575;SDS011;3829;50.798;4.358;2023-08-07T02:35:27;6.70;;;2.60;;
7575;SDS011;3829;50.798;4.358;2023-08-07T02:37:52;4.63;;;2.47;;
7575;SDS011;3829;50.798;4.358;2023-08-07T02:40:18;7.13;;;2.57;;
7575;SDS011;3829;50.798;4.358;2023-08-07T02:42:44;4.83;;;2.40;;
7575;SDS011;3829;50.798;4.358;2023-08-07T02:45:09;5.67;;;2.27;;
7575;SDS011;3829;50.798;4.358;2023-08-07T02:47:35;7.53;;;2.67;;
7575;SDS011;3829;50.798;4.358;2023-08-07T02:50:01;6.70;;;2.60;;
7575;SDS011;3829;50.798;4.358;2023-08-07T02:52:26;6.23;;;2.53;;
7575;SDS011;3829;50.798;4.358;2023-08-07T02:54:52;4.70;;;3.00;;
7575;SDS011;3829;50.798;4.358;2023-08-07T02:57:18;4.03;;;2.33;;
7575;SDS011;3829;50.798;4.358;2023-08-07T02:59:44;6.57;;;2.80;;
7575;SDS011;3829;50.798;4.358;2023-08-07T03:02:09;9.03;;;2.17;;
7575;SDS011;3829;50.798;4.358;2023-08-07T03:04:35;4.63;;;2.43;;
7575;SDS011;3829;50.798;4.358;2023-08-07T03:07:01;3.90;;;2.27;;
7575;SDS011;3829;50.798;4.358;2023-08-07T03:09:26;6.70;;;2.33;;
7575;SDS011;3829;50.798;4.358;2023-08-07T03:11:52;10.83;;;2.37;;
7575;SDS011;3829;50.798;4.358;2023-08-07T03:14:17;7.73;;;2.50;;
7575;SDS011;3829;50.798;4.358;2023-08-07T03:16:44;11.80;;;2.70;;
7575;SDS011;3829;50.798;4.358;2023-08-07T03:19:10;6.30;;;2.63;;
7575;SDS011;3829;50.798;4.358;2023-08-07T03:21:36;8.50;;;2.47;;
7575;SDS011;3829;50.798;4.358;2023-08-07T03:24:01;4.97;;;2.50;;
7575;SDS011;3829;50.798;4.358;2023-08-07T03:26:27;4.50;;;2.23;;
7575;SDS011;3829;50.798;4.358;2023-08-07T03:28:52;4.70;;;2.53;;
7575;SDS011;3829;50.798;4.358;2023-08-07T03:31:18;4.17;;;2.20;;
7575;SDS011;3829;50.798;4.358;2023-08-07T03:33:43;9.50;;;2.87;;
7575;SDS011;3829;50.798;4.358;2023-08-07T03:36:09;5.83;;;2.30;;
7575;SDS011;3829;50.798;4.358;2023-08-07T03:38:35;10.80;;;2.80;;
7575;SDS011;3829;50.798;4.358;2023-08-07T03:41:00;5.27;;;2.40;;
7575;SDS011;3829;50.798;4.358;2023-08-07T03:43:26;5.07;;;2.47;;
7575;SDS011;3829;50.798;4.358;2023-08-07T03:45:55;4.37;;;2.60;;
7575;SDS011;3829;50.798;4.358;2023-08-07T03:48:22;3.70;;;2.40;;
7575;SDS011;3829;50.798;4.358;2023-08-07T03:50:47;8.20;;;2.27;;
7575;SDS011;3829;50.798;4.358;2023-08-07T03:53:13;6.47;;;2.43;;
7575;SDS011;3829;50.798;4.358;2023-08-07T03:55:38;8.70;;;2.67;;
7575;SDS011;3829;50.798;4.358;2023-08-07T03:58:05;5.40;;;2.47;;
7575;SDS011;3829;50.798;4.358;2023-08-07T04:00:30;8.27;;;2.60;;
7575;SDS011;3829;50.798;4.358;2023-08-07T04:02:56;3.43;;;2.27;;
7575;SDS011;3829;50.798;4.358;2023-08-07T04:05:21;12.70;;;2.73;;
7575;SDS011;3829;50.798;4.358;2023-08-07T04:07:47;4.77;;;2.70;;
7575;SDS011;3829;50.798;4.358;2023-08-07T04:10:13;8.10;;;2.63;;
7575;SDS011;3829;50.798;4.358;2023-08-07T04:12:38;6.30;;;2.80;;
7575;SDS011;3829;50.798;4.358;2023-08-07T04:15:04;7.83;;;2.90;;
7575;SDS011;3829;50.798;4.358;2023-08-07T04:17:31;6.03;;;2.80;;
7575;SDS011;3829;50.798;4.358;2023-08-07T04:19:57;4.03;;;2.47;;
7575;SDS011;3829;50.798;4.358;2023-08-07T04:22:23;5.63;;;2.10;;
7575;SDS011;3829;50.798;4.358;2023-08-07T04:24:48;7.10;;;3.30;;
7575;SDS011;3829;50.798;4.358;2023-08-07T04:27:14;9.17;;;3.00;;
7575;SDS011;3829;50.798;4.358;2023-08-07T04:29:39;6.63;;;3.13;;
7575;SDS011;3829;50.798;4.358;2023-08-07T04:32:05;7.63;;;2.67;;
7575;SDS011;3829;50.798;4.358;2023-08-07T04:34:31;7.97;;;2.63;;
7575;SDS011;3829;50.798;4.358;2023-08-07T04:36:56;6.40;;;2.37;;
7575;SDS011;3829;50.798;4.358;2023-08-07T04:39:22;11.60;;;3.40;;
7575;SDS011;3829;50.798;4.358;2023-08-07T04:41:48;5.60;;;2.80;;
7575;SDS011;3829;50.798;4.358;2023-08-07T04:44:15;7.07;;;3.17;;
7575;SDS011;3829;50.798;4.358;2023-08-07T04:46:41;7.13;;;3.13;;
7575;SDS011;3829;50.798;4.358;2023-08-07T04:49:07;10.30;;;3.10;;
7575;SDS011;3829;50.798;4.358;2023-08-07T04:51:32;4.43;;;2.80;;
7575;SDS011;3829;50.798;4.358;2023-08-07T04:53:58;12.93;;;3.23;;
7575;SDS011;3829;50.798;4.358;2023-08-07T04:56:23;6.50;;;2.67;;
7575;SDS011;3829;50.798;4.358;2023-08-07T04:58:49;11.37;;;3.10;;
7575;SDS011;3829;50.798;4.358;2023-08-07T05:01:15;9.57;;;3.53;;
7575;SDS011;3829;50.798;4.358;2023-08-07T05:03:40;7.20;;;3.00;;
7575;SDS011;3829;50.798;4.358;2023-08-07T05:06:06;6.57;;;2.80;;
7575;SDS011;3829;50.798;4.358;2023-08-07T05:08:31;8.07;;;3.10;;
7575;SDS011;3829;50.798;4.358;2023-08-07T05:10:57;6.33;;;3.20;;
7575;SDS011;3829;50.798;4.358;2023-08-07T05:13:23;5.67;;;3.13;;
7575;SDS011;3829;50.798;4.358;2023-08-07T05:15:48;7.73;;;2.87;;
7575;SDS011;3829;50.798;4.358;2023-08-07T05:18:14;7.83;;;3.00;;
7575;SDS011;3829;50.798;4.358;2023-08-07T05:20:40;7.43;;;2.90;;
7575;SDS011;3829;50.798;4.358;2023-08-07T05:23:06;6.73;;;3.03;;
7575;SDS011;3829;50.798;4.358;2023-08-07T05:25:31;7.97;;;3.00;;
7575;SDS011;3829;50.798;4.358;2023-08-07T05:27:57;5.00;;;2.70;;
7575;SDS011;3829;50.798;4.358;2023-08-07T05:30:23;5.77;;;2.80;;
7575;SDS011;3829;50.798;4.358;2023-08-07T05:32:48;9.17;;;3.30;;
7575;SDS011;3829;50.798;4.358;2023-08-07T05:35:14;7.27;;;4.23;;
7575;SDS011;3829;50.798;4.358;2023-08-07T05:37:40;8.20;;;3.20;;
7575;SDS011;3829;50.798;4.358;2023-08-07T05:40:05;7.27;;;3.53;;
7575;SDS011;3829;50.798;4.358;2023-08-07T05:42:31;5.77;;;3.17;;
7575;SDS011;3829;50.798;4.358;2023-08-07T05:44:58;12.83;;;2.63;;
7575;SDS011;3829;50.798;4.358;2023-08-07T05:47:24;7.90;;;2.90;;
7575;SDS011;3829;50.798;4.358;2023-08-07T05:49:50;8.03;;;3.47;;
7575;SDS011;3829;50.798;4.358;2023-08-07T05:52:16;9.53;;;3.00;;
7575;SDS011;3829;50.798;4.358;2023-08-07T05:54:42;3.40;;;2.50;;
7575;SDS011;3829;50.798;4.358;2023-08-07T05:57:08;6.10;;;3.20;;
7575;SDS011;3829;50.798;4.358;2023-08-07T05:59:34;7.87;;;2.77;;
7575;SDS011;3829;50.798;4.358;2023-08-07T06:02:00;6.10;;;2.50;;
7575;SDS011;3829;50.798;4.358;2023-08-07T06:04:27;7.57;;;2.70;;
7575;SDS011;3829;50.798;4.358;2023-08-07T06:06:52;7.13;;;2.80;;
7575;SDS011;3829;50.798;4.358;2023-08-07T06:09:18;7.57;;;3.00;;
7575;SDS011;3829;50.798;4.358;2023-08-07T06:11:44;6.73;;;2.83;;
7575;SDS011;3829;50.798;4.358;2023-08-07T06:14:09;8.70;;;2.93;;
7575;SDS011;3829;50.798;4.358;2023-08-07T06:16:35;8.13;;;2.77;;
7575;SDS011;3829;50.798;4.358;2023-08-07T06:19:01;6.60;;;2.73;;
7575;SDS011;3829;50.798;4.358;2023-08-07T06:21:28;6.57;;;2.97;;
7575;SDS011;3829;50.798;4.358;2023-08-07T06:23:54;6.27;;;3.43;;
7575;SDS011;3829;50.798;4.358;2023-08-07T06:26:19;10.97;;;3.13;;
7575;SDS011;3829;50.798;4.358;2023-08-07T06:28:45;8.07;;;3.00;;
7575;SDS011;3829;50.798;4.358;2023-08-07T06:31:11;5.70;;;3.20;;
7575;SDS011;3829;50.798;4.358;2023-08-07T06:33:37;4.83;;;2.97;;
7575;SDS011;3829;50.798;4.358;2023-08-07T06:36:03;8.80;;;2.50;;
7575;SDS011;3829;50.798;4.358;2023-08-07T06:38:29;9.57;;;2.70;;
7575;SDS011;3829;50.798;4.358;2023-08-07T06:40:55;8.37;;;2.67;;
7575;SDS011;3829;50.798;4.358;2023-08-07T06:43:21;9.97;;;3.17;;
7575;SDS011;3829;50.798;4.358;2023-08-07T06:45:50;4.63;;;2.80;;
7575;SDS011;3829;50.798;4.358;2023-08-07T06:48:17;10.07;;;3.20;;
7575;SDS011;3829;50.798;4.358;2023-08-07T06:50:43;8.50;;;3.00;;
7575;SDS011;3829;50.798;4.358;2023-08-07T06:53:09;8.53;;;2.77;;
7575;SDS011;3829;50.798;4.358;2023-08-07T06:55:35;5.00;;;2.70;;
7575;SDS011;3829;50.798;4.358;2023-08-07T06:58:00;10.00;;;3.33;;
7575;SDS011;3829;50.798;4.358;2023-08-07T07:00:26;5.70;;;3.00;;
7575;SDS011;3829;50.798;4.358;2023-08-07T07:02:51;13.03;;;2.93;;
7575;SDS011;3829;50.798;4.358;2023-08-07T07:05:18;8.20;;;2.87;;
7575;SDS011;3829;50.798;4.358;2023-08-07T07:07:43;9.30;;;3.27;;
7575;SDS011;3829;50.798;4.358;2023-08-07T07:10:09;6.27;;;2.97;;
7575;SDS011;3829;50.798;4.358;2023-08-07T07:12:35;4.40;;;2.60;;
7575;SDS011;3829;50.798;4.358;2023-08-07T07:15:00;10.20;;;3.03;;
7575;SDS011;3829;50.798;4.358;2023-08-07T07:17:26;8.60;;;3.20;;
7575;SDS011;3829;50.798;4.358;2023-08-07T07:19:53;9.50;;;3.23;;
7575;SDS011;3829;50.798;4.358;2023-08-07T07:22:18;6.53;;;2.73;;
7575;SDS011;3829;50.798;4.358;2023-08-07T07:24:44;7.90;;;3.30;;
7575;SDS011;3829;50.798;4.358;2023-08-07T07:27:10;6.17;;;2.57;;
7575;SDS011;3829;50.798;4.358;2023-08-07T07:29:35;7.03;;;3.20;;
7575;SDS011;3829;50.798;4.358;2023-08-07T07:32:01;7.67;;;2.60;;
7575;SDS011;3829;50.798;4.358;2023-08-07T07:34:27;3.83;;;2.53;;
7575;SDS011;3829;50.798;4.358;2023-08-07T07:36:52;6.10;;;2.83;;
7575;SDS011;3829;50.798;4.358;2023-08-07T07:39:19;4.33;;;2.80;;
7575;SDS011;3829;50.798;4.358;2023-08-07T07:41:45;5.53;;;2.47;;
7575;SDS011;3829;50.798;4.358;2023-08-07T07:44:10;6.13;;;2.60;;
7575;SDS011;3829;50.798;4.358;2023-08-07T07:46:36;9.07;;;2.90;;
7575;SDS011;3829;50.798;4.358;2023-08-07T07:49:01;5.77;;;2.53;;
7575;SDS011;3829;50.798;4.358;2023-08-07T07:51:28;5.67;;;2.60;;
7575;SDS011;3829;50.798;4.358;2023-08-07T07:53:54;8.07;;;2.30;;
7575;SDS011;3829;50.798;4.358;2023-08-07T07:56:20;8.87;;;2.93;;
7575;SDS011;3829;50.798;4.358;2023-08-07T07:58:45;6.67;;;2.50;;
7575;SDS011;3829;50.798;4.358;2023-08-07T08:01:11;9.17;;;2.27;;
7575;SDS011;3829;50.798;4.358;2023-08-07T08:03:36;9.33;;;2.20;;
7575;SDS011;3829;50.798;4.358;2023-08-07T08:06:02;3.03;;;2.00;;
7575;SDS011;3829;50.798;4.358;2023-08-07T08:08:28;6.77;;;2.10;;
7575;SDS011;3829;50.798;4.358;2023-08-07T08:10:54;3.07;;;2.20;;
7575;SDS011;3829;50.798;4.358;2023-08-07T08:13:19;4.37;;;1.83;;
7575;SDS011;3829;50.798;4.358;2023-08-07T08:15:45;3.97;;;1.90;;
7575;SDS011;3829;50.798;4.358;2023-08-07T08:18:11;4.20;;;2.07;;
7575;SDS011;3829;50.798;4.358;2023-08-07T08:20:37;3.50;;;1.70;;
7575;SDS011;3829;50.798;4.358;2023-08-07T08:23:03;4.37;;;1.97;;
7575;SDS011;3829;50.798;4.358;2023-08-07T08:25:30;4.90;;;2.03;;
7575;SDS011;3829;50.798;4.358;2023-08-07T08:27:56;2.90;;;1.90;;
7575;SDS011;3829;50.798;4.358;2023-08-07T08:30:22;4.43;;;1.93;;
7575;SDS011;3829;50.798;4.358;2023-08-07T08:32:47;3.23;;;1.73;;
7575;SDS011;3829;50.798;4.358;2023-08-07T08:35:13;5.00;;;1.87;;
7575;SDS011;3829;50.798;4.358;2023-08-07T08:37:39;4.23;;;1.53;;
7575;SDS011;3829;50.798;4.358;2023-08-07T08:40:05;3.53;;;2.00;;
7575;SDS011;3829;50.798;4.358;2023-08-07T08:42:32;2.33;;;1.60;;
7575;SDS011;3829;50.798;4.358;2023-08-07T08:44:59;3.83;;;2.00;;
7575;SDS011;3829;50.798;4.358;2023-08-07T08:47:25;6.43;;;2.00;;
7575;SDS011;3829;50.798;4.358;2023-08-07T08:49:54;5.40;;;2.10;;
7575;SDS011;3829;50.798;4.358;2023-08-07T08:52:31;4.57;;;1.93;;
7575;SDS011;3829;50.798;4.358;2023-08-07T08:54:57;3.07;;;2.00;;
7575;SDS011;3829;50.798;4.358;2023-08-07T08:57:25;6.60;;;1.80;;
7575;SDS011;3829;50.798;4.358;2023-08-07T08:59:51;4.37;;;1.70;;
7575;SDS011;3829;50.798;4.358;2023-08-07T09:02:17;4.73;;;1.73;;
7575;SDS011;3829;50.798;4.358;2023-08-07T09:04:44;2.33;;;1.73;;
7575;SDS011;3829;50.798;4.358;2023-08-07T09:07:10;4.73;;;2.07;;
7575;SDS011;3829;50.798;4.358;2023-08-07T09:09:38;2.63;;;1.70;;
7575;SDS011;3829;50.798;4.358;2023-08-07T09:12:06;5.97;;;1.87;;
7575;SDS011;3829;50.798;4.358;2023-08-07T09:14:36;3.30;;;1.80;;
7575;SDS011;3829;50.798;4.358;2023-08-07T09:17:04;4.20;;;2.10;;
7575;SDS011;3829;50.798;4.358;2023-08-07T09:19:30;3.10;;;2.20;;
7575;SDS011;3829;50.798;4.358;2023-08-07T09:21:56;2.60;;;1.80;;
7575;SDS011;3829;50.798;4.358;2023-08-07T09:24:21;4.60;;;1.90;;
7575;SDS011;3829;50.798;4.358;2023-08-07T09:26:47;3.53;;;1.60;;
7575;SDS011;3829;50.798;4.358;2023-08-07T09:29:15;3.77;;;1.67;;
7575;SDS011;3829;50.798;4.358;2023-08-07T09:31:43;2.43;;;1.87;;
7575;SDS011;3829;50.798;4.358;2023-08-07T09:34:10;3.10;;;1.87;;
7575;SDS011;3829;50.798;4.358;2023-08-07T09:36:37;4.53;;;1.57;;
7575;SDS011;3829;50.798;4.358;2023-08-07T09:39:03;2.60;;;1.70;;
7575;SDS011;3829;50.798;4.358;2023-08-07T09:41:29;3.93;;;1.90;;
7575;SDS011;3829;50.798;4.358;2023-08-07T09:43:56;2.07;;;1.67;;
7575;SDS011;3829;50.798;4.358;2023-08-07T09:46:22;4.13;;;1.60;;
7575;SDS011;3829;50.798;4.358;2023-08-07T09:48:49;7.60;;;1.83;;
7575;SDS011;3829;50.798;4.358;2023-08-07T09:51:15;6.20;;;2.07;;
7575;SDS011;3829;50.798;4.358;2023-08-07T09:53:41;5.70;;;2.00;;
7575;SDS011;3829;50.798;4.358;2023-08-07T09:56:06;5.03;;;2.03;;
7575;SDS011;3829;50.798;4.358;2023-08-07T09:58:32;3.60;;;1.67;;
7575;SDS011;3829;50.798;4.358;2023-08-07T10:00:58;2.97;;;1.67;;
7575;SDS011;3829;50.798;4.358;2023-08-07T10:03:26;3.73;;;1.80;;
7575;SDS011;3829;50.798;4.358;2023-08-07T10:05:51;3.00;;;2.00;;
7575;SDS011;3829;50.798;4.358;2023-08-07T10:08:17;2.40;;;1.60;;
7575;SDS011;3829;50.798;4.358;2023-08-07T10:10:43;3.90;;;1.60;;
7575;SDS011;3829;50.798;4.358;2023-08-07T10:13:12;6.40;;;2.20;;
7575;SDS011;3829;50.798;4.358;2023-08-07T10:15:39;1.70;;;1.40;;
7575;SDS011;3829;50.798;4.358;2023-08-07T10:18:06;3.67;;;1.70;;
7575;SDS011;3829;50.798;4.358;2023-08-07T10:20:33;4.63;;;1.70;;
7575;SDS011;3829;50.798;4.358;2023-08-07T10:23:01;2.33;;;1.70;;
7575;SDS011;3829;50.798;4.358;2023-08-07T10:25:32;2.73;;;1.60;;
7575;SDS011;3829;50.798;4.358;2023-08-07T10:28:02;2.03;;;1.70;;
7575;SDS011;3829;50.798;4.358;2023-08-07T10:30:31;2.47;;;1.50;;
7575;SDS011;3829;50.798;4.358;2023-08-07T10:32:58;2.27;;;1.30;;
7575;SDS011;3829;50.798;4.358;2023-08-07T10:35:25;2.40;;;1.63;;
7575;SDS011;3829;50.798;4.358;2023-08-07T10:37:54;7.23;;;1.40;;
7575;SDS011;3829;50.798;4.358;2023-08-07T10:40:29;3.97;;;1.60;;
7575;SDS011;3829;50.798;4.358;2023-08-07T10:42:58;3.03;;;1.60;;
7575;SDS011;3829;50.798;4.358;2023-08-07T10:45:36;2.50;;;1.57;;
7575;SDS011;3829;50.798;4.358;2023-08-07T10:48:05;4.17;;;1.60;;
7575;SDS011;3829;50.798;4.358;2023-08-07T10:50:34;2.20;;;1.53;;
7575;SDS011;3829;50.798;4.358;2023-08-07T10:53:18;3.17;;;1.40;;
7575;SDS011;3829;50.798;4.358;2023-08-07T10:55:47;3.93;;;1.70;;
7575;SDS011;3829;50.798;4.358;2023-08-07T11:03:42;3.27;;;2.00;;
7575;SDS011;3829;50.798;4.358;2023-08-07T11:06:09;1.50;;;1.40;;
7575;SDS011;3829;50.798;4.358;2023-08-07T11:08:36;6.07;;;1.70;;
7575;SDS011;3829;50.798;4.358;2023-08-07T11:11:04;3.47;;;2.60;;
7575;SDS011;3829;50.798;4.358;2023-08-07T11:13:30;2.43;;;1.80;;
7575;SDS011;3829;50.798;4.358;2023-08-07T11:15:56;3.07;;;1.60;;
7575;SDS011;3829;50.798;4.358;2023-08-07T11:18:22;2.93;;;1.77;;
7575;SDS011;3829;50.798;4.358;2023-08-07T11:20:48;4.40;;;1.50;;
7575;SDS011;3829;50.798;4.358;2023-08-07T11:23:14;3.13;;;1.83;;
7575;SDS011;3829;50.798;4.358;2023-08-07T11:25:40;3.40;;;1.80;;
7575;SDS011;3829;50.798;4.358;2023-08-07T11:28:06;5.20;;;1.83;;
7575;SDS011;3829;50.798;4.358;2023-08-07T11:30:33;3.07;;;1.77;;
7575;SDS011;3829;50.798;4.358;2023-08-07T11:33:00;1.73;;;1.40;;
7575;SDS011;3829;50.798;4.358;2023-08-07T11:35:26;1.97;;;1.40;;
7575;SDS011;3829;50.798;4.358;2023-08-07T11:37:51;2.27;;;1.50;;
7575;SDS011;3829;50.798;4.358;2023-08-07T11:40:19;3.53;;;1.77;;
7575;SDS011;3829;50.798;4.358;2023-08-07T11:42:45;5.33;;;1.77;;
7575;SDS011;3829;50.798;4.358;2023-08-07T11:45:10;3.13;;;1.63;;
7575;SDS011;3829;50.798;4.358;2023-08-07T11:47:36;3.40;;;1.40;;
7575;SDS011;3829;50.798;4.358;2023-08-07T11:50:01;2.93;;;1.40;;
7575;SDS011;3829;50.798;4.358;2023-08-07T11:52:27;1.50;;;1.40;;
7575;SDS011;3829;50.798;4.358;2023-08-07T11:54:53;3.30;;;1.70;;
7575;SDS011;3829;50.798;4.358;2023-08-07T11:57:20;1.63;;;1.53;;
7575;SDS011;3829;50.798;4.358;2023-08-07T11:59:47;3.13;;;1.43;;
7575;SDS011;3829;50.798;4.358;2023-08-07T12:02:14;2.33;;;1.80;;
7575;SDS011;3829;50.798;4.358;2023-08-07T12:04:40;2.60;;;1.37;;
7575;SDS011;3829;50.798;4.358;2023-08-07T12:07:05;2.43;;;1.50;;
7575;SDS011;3829;50.798;4.358;2023-08-07T12:09:31;2.43;;;1.30;;
7575;SDS011;3829;50.798;4.358;2023-08-07T12:11:57;1.90;;;1.37;;
7575;SDS011;3829;50.798;4.358;2023-08-07T12:14:23;1.93;;;1.20;;
7575;SDS011;3829;50.798;4.358;2023-08-07T12:16:55;1.83;;;1.40;;
7575;SDS011;3829;50.798;4.358;2023-08-07T12:19:20;1.10;;;1.00;;
7575;SDS011;3829;50.798;4.358;2023-08-07T12:21:46;1.57;;;1.43;;
7575;SDS011;3829;50.798;4.358;2023-08-07T12:24:12;2.30;;;1.30;;
7575;SDS011;3829;50.798;4.358;2023-08-07T12:26:38;1.60;;;1.50;;
7575;SDS011;3829;50.798;4.358;2023-08-07T12:29:03;1.80;;;1.30;;
7575;SDS011;3829;50.798;4.358;2023-08-07T12:31:29;2.30;;;1.07;;
7575;SDS011;3829;50.798;4.358;2023-08-07T12:33:55;4.20;;;1.40;;
7575;SDS011;3829;50.798;4.358;2023-08-07T12:36:20;2.63;;;1.40;;
7575;SDS011;3829;50.798;4.358;2023-08-07T12:38:46;2.17;;;1.20;;
7575;SDS011;3829;50.798;4.358;2023-08-07T12:41:12;2.17;;;1.40;;
7575;SDS011;3829;50.798;4.358;2023-08-07T12:43:39;2.47;;;1.43;;
7575;SDS011;3829;50.798;4.358;2023-08-07T12:46:04;2.37;;;1.30;;
7575;SDS011;3829;50.798;4.358;2023-08-07T12:48:30;2.17;;;1.40;;
7575;SDS011;3829;50.798;4.358;2023-08-07T12:50:55;1.30;;;1.20;;
7575;SDS011;3829;50.798;4.358;2023-08-07T12:53:21;3.83;;;1.60;;
7575;SDS011;3829;50.798;4.358;2023-08-07T12:55:47;1.50;;;1.27;;
7575;SDS011;3829;50.798;4.358;2023-08-07T12:58:12;5.27;;;1.37;;
7575;SDS011;3829;50.798;4.358;2023-08-07T13:00:38;2.50;;;1.10;;
7575;SDS011;3829;50.798;4.358;2023-08-07T13:03:03;3.20;;;1.33;;
7575;SDS011;3829;50.798;4.358;2023-08-07T13:05:29;3.37;;;1.20;;
7575;SDS011;3829;50.798;4.358;2023-08-07T13:07:56;1.20;;;1.10;;
7575;SDS011;3829;50.798;4.358;2023-08-07T13:10:23;2.10;;;1.20;;
7575;SDS011;3829;50.798;4.358;2023-08-07T13:12:49;1.83;;;1.07;;
7575;SDS011;3829;50.798;4.358;2023-08-07T13:15:15;2.23;;;1.30;;
7575;SDS011;3829;50.798;4.358;2023-08-07T13:17:42;1.23;;;1.00;;
7575;SDS011;3829;50.798;4.358;2023-08-07T13:20:08;1.40;;;1.13;;
7575;SDS011;3829;50.798;4.358;2023-08-07T13:22:36;1.07;;;0.90;;
7575;SDS011;3829;50.798;4.358;2023-08-07T13:25:02;1.87;;;1.20;;
7575;SDS011;3829;50.798;4.358;2023-08-07T13:27:29;2.97;;;1.20;;
7575;SDS011;3829;50.798;4.358;2023-08-07T13:29:56;1.67;;;1.10;;
7575;SDS011;3829;50.798;4.358;2023-08-07T13:32:22;3.30;;;1.60;;
7575;SDS011;3829;50.798;4.358;2023-08-07T13:34:47;1.90;;;1.00;;
7575;SDS011;3829;50.798;4.358;2023-08-07T13:37:13;0.83;;;0.83;;
7575;SDS011;3829;50.798;4.358;2023-08-07T13:39:39;1.13;;;1.00;;
7575;SDS011;3829;50.798;4.358;2023-08-07T13:42:05;1.93;;;1.13;;
7575;SDS011;3829;50.798;4.358;2023-08-07T13:44:31;2.63;;;1.30;;
7575;SDS011;3829;50.798;4.358;2023-08-07T13:46:57;2.03;;;1.00;;
7575;SDS011;3829;50.798;4.358;2023-08-07T13:49:22;2.10;;;1.17;;
7575;SDS011;3829;50.798;4.358;2023-08-07T13:51:48;1.63;;;0.90;;
7575;SDS011;3829;50.798;4.358;2023-08-07T13:54:14;1.60;;;1.03;;
7575;SDS011;3829;50.798;4.358;2023-08-07T13:56:40;4.67;;;1.00;;
7575;SDS011;3829;50.798;4.358;2023-08-07T13:59:05;1.73;;;0.83;;
7575;SDS011;3829;50.798;4.358;2023-08-07T14:01:31;2.40;;;0.70;;
7575;SDS011;3829;50.798;4.358;2023-08-07T14:03:58;1.70;;;1.00;;
7575;SDS011;3829;50.798;4.358;2023-08-07T14:06:23;3.63;;;1.00;;
7575;SDS011;3829;50.798;4.358;2023-08-07T14:08:49;1.77;;;1.10;;
7575;SDS011;3829;50.798;4.358;2023-08-07T14:11:14;1.10;;;1.00;;
7575;SDS011;3829;50.798;4.358;2023-08-07T14:13:41;2.00;;;1.03;;
7575;SDS011;3829;50.798;4.358;2023-08-07T14:16:06;1.73;;;1.07;;
7575;SDS011;3829;50.798;4.358;2023-08-07T14:18:32;2.07;;;1.00;;
7575;SDS011;3829;50.798;4.358;2023-08-07T14:20:58;1.20;;;1.10;;
7575;SDS011;3829;50.798;4.358;2023-08-07T14:23:23;1.80;;;1.00;;
7575;SDS011;3829;50.798;4.358;2023-08-07T14:25:49;1.17;;;1.07;;
7575;SDS011;3829;50.798;4.358;2023-08-07T14:28:16;1.33;;;1.17;;
7575;SDS011;3829;50.798;4.358;2023-08-07T14:30:42;2.47;;;1.00;;
7575;SDS011;3829;50.798;4.358;2023-08-07T14:33:08;2.57;;;1.10;;
7575;SDS011;3829;50.798;4.358;2023-08-07T14:35:33;3.60;;;1.13;;
7575;SDS011;3829;50.798;4.358;2023-08-07T14:37:59;1.00;;;0.90;;
7575;SDS011;3829;50.798;4.358;2023-08-07T14:40:25;2.07;;;1.10;;
7575;SDS011;3829;50.798;4.358;2023-08-07T14:42:51;1.20;;;0.70;;
7575;SDS011;3829;50.798;4.358;2023-08-07T14:45:17;1.00;;;0.90;;
7575;SDS011;3829;50.798;4.358;2023-08-07T14:47:43;1.07;;;0.80;;
7575;SDS011;3829;50.798;4.358;2023-08-07T14:50:08;0.80;;;0.70;;
7575;SDS011;3829;50.798;4.358;2023-08-07T14:52:34;1.17;;;0.87;;
7575;SDS011;3829;50.798;4.358;2023-08-07T14:55:01;2.10;;;0.90;;
7575;SDS011;3829;50.798;4.358;2023-08-07T14:57:26;2.60;;;1.10;;
7575;SDS011;3829;50.798;4.358;2023-08-07T14:59:52;3.63;;;0.70;;
7575;SDS011;3829;50.798;4.358;2023-08-07T15:02:17;2.23;;;1.20;;
7575;SDS011;3829;50.798;4.358;2023-08-07T15:04:43;2.87;;;0.80;;
7575;SDS011;3829;50.798;4.358;2023-08-07T15:07:08;1.60;;;0.80;;
7575;SDS011;3829;50.798;4.358;2023-08-07T15:09:34;1.10;;;0.80;;
7575;SDS011;3829;50.798;4.358;2023-08-07T15:11:59;1.07;;;0.80;;
7575;SDS011;3829;50.798;4.358;2023-08-07T15:14:25;1.10;;;1.00;;
7575;SDS011;3829;50.798;4.358;2023-08-07T15:16:51;0.87;;;0.80;;